sensor_id;sensor_type;location;lat;lon;timestamp;pressure;altitude;pressure_sealevel;temperature;humidity
14293;BME280;62290;59.420;17.842;2023-12-22T00:00:26;96053.91;;;22.03;25.20
14293;BME280;62290;59.420;17.842;2023-12-22T00:02:54;96071.84;;;22.02;25.38
14293;BME280;62290;59.420;17.842;2023-12-22T00:05:23;96059.00;;;22.04;25.35
14293;BME280;62290;59.420;17.842;2023-12-22T00:07:51;96047.47;;;22.04;25.16
14293;BME280;62290;59.420;17.842;2023-12-22T00:10:19;96050.63;;;22.01;25.05
14293;BME280;62290;59.420;17.842;2023-12-22T00:12:47;96031.88;;;21.89;25.41
14293;BME280;62290;59.420;17.842;2023-12-22T00:15:15;96051.31;;;21.96;25.45
14293;BME280;62290;59.420;17.842;2023-12-22T00:17:43;96042.47;;;21.96;25.21
14293;BME280;62290;59.420;17.842;2023-12-22T00:20:12;96059.84;;;21.93;25.65
14293;BME280;62290;59.420;17.842;2023-12-22T00:22:42;96049.94;;;21.94;25.30
14293;BME280;62290;59.420;17.842;2023-12-22T00:25:10;96059.25;;;21.91;25.52
14293;BME280;62290;59.420;17.842;2023-12-22T00:27:38;96040.75;;;21.90;25.33
14293;BME280;62290;59.420;17.842;2023-12-22T00:30:07;96026.50;;;21.78;25.27
14293;BME280;62290;59.420;17.842;2023-12-22T00:32:35;96039.41;;;21.81;25.57
14293;BME280;62290;59.420;17.842;2023-12-22T00:35:04;96045.28;;;21.89;25.52
14293;BME280;62290;59.420;17.842;2023-12-22T00:37:32;96037.72;;;21.86;25.55
14293;BME280;62290;59.420;17.842;2023-12-22T00:40:02;96037.88;;;21.85;25.35
14293;BME280;62290;59.420;17.842;2023-12-22T00:42:31;96038.97;;;21.84;25.69
14293;BME280;62290;59.420;17.842;2023-12-22T00:44:59;96041.84;;;21.82;25.42
14293;BME280;62290;59.420;17.842;2023-12-22T00:47:28;96043.13;;;21.80;25.72
14293;BME280;62290;59.420;17.842;2023-12-22T00:49:56;96050.38;;;21.79;25.83
14293;BME280;62290;59.420;17.842;2023-12-22T00:52:24;96045.25;;;21.78;25.60
14293;BME280;62290;59.420;17.842;2023-12-22T00:54:53;96050.13;;;21.81;25.36
14293;BME280;62290;59.420;17.842;2023-12-22T00:57:22;96068.19;;;21.74;25.28
14293;BME280;62290;59.420;17.842;2023-12-22T00:59:50;96054.09;;;21.78;25.46
14293;BME280;62290;59.420;17.842;2023-12-22T01:02:18;96042.22;;;21.74;25.33
14293;BME280;62290;59.420;17.842;2023-12-22T01:04:47;96060.16;;;21.85;25.74
14293;BME280;62290;59.420;17.842;2023-12-22T01:07:15;96059.81;;;21.82;25.53
14293;BME280;62290;59.420;17.842;2023-12-22T01:09:45;96064.81;;;21.78;25.31
14293;BME280;62290;59.420;17.842;2023-12-22T01:12:13;96064.81;;;21.78;25.34
14293;BME280;62290;59.420;17.842;2023-12-22T01:14:42;96073.09;;;21.77;25.33
14293;BME280;62290;59.420;17.842;2023-12-22T01:17:11;96076.00;;;21.75;25.75
14293;BME280;62290;59.420;17.842;2023-12-22T01:19:39;96076.25;;;21.74;25.41
14293;BME280;62290;59.420;17.842;2023-12-22T01:22:07;96072.72;;;21.73;25.64
14293;BME280;62290;59.420;17.842;2023-12-22T01:24:35;96078.91;;;21.74;25.57
14293;BME280;62290;59.420;17.842;2023-12-22T01:27:06;96068.41;;;21.72;25.38
14293;BME280;62290;59.420;17.842;2023-12-22T01:29:34;96059.09;;;21.75;25.26
14293;BME280;62290;59.420;17.842;2023-12-22T01:32:04;96071.22;;;21.77;25.36
14293;BME280;62290;59.420;17.842;2023-12-22T01:34:32;96063.16;;;21.77;25.22
14293;BME280;62290;59.420;17.842;2023-12-22T01:37:00;96062.97;;;21.79;25.21
14293;BME280;62290;59.420;17.842;2023-12-22T01:39:28;96055.25;;;21.71;25.31
14293;BME280;62290;59.420;17.842;2023-12-22T01:41:56;96061.00;;;21.74;25.55
14293;BME280;62290;59.420;17.842;2023-12-22T01:44:24;96067.13;;;21.75;25.47
14293;BME280;62290;59.420;17.842;2023-12-22T01:46:52;96074.97;;;21.76;25.31
14293;BME280;62290;59.420;17.842;2023-12-22T01:49:22;96086.25;;;21.78;25.32
14293;BME280;62290;59.420;17.842;2023-12-22T01:51:52;96079.50;;;21.76;25.57
14293;BME280;62290;59.420;17.842;2023-12-22T01:54:20;96066.81;;;21.71;25.31
14293;BME280;62290;59.420;17.842;2023-12-22T01:56:48;96068.88;;;21.69;25.50
14293;BME280;62290;59.420;17.842;2023-12-22T01:59:16;96077.41;;;21.66;25.53
14293;BME280;62290;59.420;17.842;2023-12-22T02:01:44;96079.59;;;21.69;25.38
14293;BME280;62290;59.420;17.842;2023-12-22T02:04:14;96085.56;;;21.71;25.26
14293;BME280;62290;59.420;17.842;2023-12-22T02:06:44;96078.09;;;21.73;25.50
14293;BME280;62290;59.420;17.842;2023-12-22T02:09:11;96076.69;;;21.71;25.31
14293;BME280;62290;59.420;17.842;2023-12-22T02:11:39;96070.16;;;21.67;25.70
14293;BME280;62290;59.420;17.842;2023-12-22T02:14:08;96086.72;;;21.64;25.42
14293;BME280;62290;59.420;17.842;2023-12-22T02:16:39;96082.50;;;21.68;25.47
14293;BME280;62290;59.420;17.842;2023-12-22T02:19:18;96066.19;;;21.69;25.39
14293;BME280;62290;59.420;17.842;2023-12-22T02:22:04;96069.13;;;21.68;25.30
14293;BME280;62290;59.420;17.842;2023-12-22T02:24:37;96067.47;;;21.55;25.28
14293;BME280;62290;59.420;17.842;2023-12-22T02:27:06;96080.66;;;21.68;25.48
14293;BME280;62290;59.420;17.842;2023-12-22T02:29:46;96080.41;;;21.70;25.52
14293;BME280;62290;59.420;17.842;2023-12-22T02:32:22;96070.06;;;21.73;25.31
14293;BME280;62290;59.420;17.842;2023-12-22T02:34:52;96062.25;;;21.72;25.49
14293;BME280;62290;59.420;17.842;2023-12-22T02:37:22;96075.28;;;21.68;25.55
14293;BME280;62290;59.420;17.842;2023-12-22T02:39:52;96086.00;;;21.68;25.66
14293;BME280;62290;59.420;17.842;2023-12-22T02:42:21;96077.97;;;21.68;25.25
14293;BME280;62290;59.420;17.842;2023-12-22T02:44:57;96062.38;;;21.65;25.48
14293;BME280;62290;59.420;17.842;2023-12-22T02:47:25;96072.84;;;21.67;25.65
14293;BME280;62290;59.420;17.842;2023-12-22T02:49:54;96072.63;;;21.68;25.63
14293;BME280;62290;59.420;17.842;2023-12-22T02:52:22;96070.75;;;21.69;25.34
14293;BME280;62290;59.420;17.842;2023-12-22T02:54:51;96081.47;;;21.69;25.63
14293;BME280;62290;59.420;17.842;2023-12-22T02:57:19;96084.16;;;21.69;25.54
14293;BME280;62290;59.420;17.842;2023-12-22T02:59:47;96081.47;;;21.69;25.34
14293;BME280;62290;59.420;17.842;2023-12-22T03:02:15;96071.56;;;21.69;25.34
14293;BME280;62290;59.420;17.842;2023-12-22T03:04:43;96052.91;;;21.51;25.45
14293;BME280;62290;59.420;17.842;2023-12-22T03:07:13;96095.19;;;21.72;25.50
14293;BME280;62290;59.420;17.842;2023-12-22T03:09:41;96099.53;;;21.73;25.21
14293;BME280;62290;59.420;17.842;2023-12-22T03:12:11;96073.31;;;21.75;25.46
14293;BME280;62290;59.420;17.842;2023-12-22T03:14:39;96086.72;;;21.75;25.42
14293;BME280;62290;59.420;17.842;2023-12-22T03:17:07;96088.81;;;21.73;25.47
14293;BME280;62290;59.420;17.842;2023-12-22T03:19:36;96098.69;;;21.73;25.14
14293;BME280;62290;59.420;17.842;2023-12-22T03:22:04;96101.63;;;21.71;25.35
14293;BME280;62290;59.420;17.842;2023-12-22T03:24:32;96105.69;;;21.74;25.46
14293;BME280;62290;59.420;17.842;2023-12-22T03:27:00;96097.88;;;21.72;25.22
14293;BME280;62290;59.420;17.842;2023-12-22T03:29:29;96107.81;;;21.72;25.41
14293;BME280;62290;59.420;17.842;2023-12-22T03:31:57;96100.34;;;21.74;25.31
14293;BME280;62290;59.420;17.842;2023-12-22T03:34:25;96105.13;;;21.72;25.24
14293;BME280;62290;59.420;17.842;2023-12-22T03:36:53;96108.47;;;21.67;25.37
14293;BME280;62290;59.420;17.842;2023-12-22T03:39:21;96123.72;;;21.67;25.16
14293;BME280;62290;59.420;17.842;2023-12-22T03:41:49;96106.63;;;21.68;25.28
14293;BME280;62290;59.420;17.842;2023-12-22T03:44:17;96103.69;;;21.69;25.13
14293;BME280;62290;59.420;17.842;2023-12-22T03:46:49;96096.72;;;21.68;25.25
14293;BME280;62290;59.420;17.842;2023-12-22T03:49:18;96110.94;;;21.69;25.51
14293;BME280;62290;59.420;17.842;2023-12-22T03:51:46;96112.56;;;21.70;25.12
14293;BME280;62290;59.420;17.842;2023-12-22T03:54:14;96122.22;;;21.71;25.27
14293;BME280;62290;59.420;17.842;2023-12-22T03:56:44;96111.06;;;21.74;25.04
14293;BME280;62290;59.420;17.842;2023-12-22T03:59:12;96118.28;;;21.73;25.17
14293;BME280;62290;59.420;17.842;2023-12-22T04:01:40;96171.03;;;21.73;25.41
14293;BME280;62290;59.420;17.842;2023-12-22T04:04:10;96138.19;;;21.77;25.17
14293;BME280;62290;59.420;17.842;2023-12-22T04:06:38;96110.81;;;21.64;25.20
14293;BME280;62290;59.420;17.842;2023-12-22T04:09:06;96168.47;;;21.78;25.06
14293;BME280;62290;59.420;17.842;2023-12-22T04:11:34;96137.41;;;21.77;24.95
14293;BME280;62290;59.420;17.842;2023-12-22T04:14:06;96142.50;;;21.78;25.35
14293;BME280;62290;59.420;17.842;2023-12-22T04:16:36;96137.41;;;21.77;25.08
14293;BME280;62290;59.420;17.842;2023-12-22T04:19:04;96157.19;;;21.76;25.11
14293;BME280;62290;59.420;17.842;2023-12-22T04:21:39;96149.13;;;21.76;25.05
14293;BME280;62290;59.420;17.842;2023-12-22T04:24:07;96136.00;;;21.74;25.37
14293;BME280;62290;59.420;17.842;2023-12-22T04:26:35;96158.69;;;21.72;25.50
14293;BME280;62290;59.420;17.842;2023-12-22T04:29:04;96165.09;;;21.71;25.12
14293;BME280;62290;59.420;17.842;2023-12-22T04:31:32;96168.13;;;21.74;25.05
14293;BME280;62290;59.420;17.842;2023-12-22T04:34:00;96164.41;;;21.75;25.31
14293;BME280;62290;59.420;17.842;2023-12-22T04:36:28;96175.34;;;21.74;25.10
14293;BME280;62290;59.420;17.842;2023-12-22T04:38:57;96182.81;;;21.72;25.35
14293;BME280;62290;59.420;17.842;2023-12-22T04:41:25;96178.03;;;21.74;25.27
14293;BME280;62290;59.420;17.842;2023-12-22T04:43:53;96175.56;;;21.72;25.36
14293;BME280;62290;59.420;17.842;2023-12-22T04:46:21;96179.06;;;21.73;24.97
14293;BME280;62290;59.420;17.842;2023-12-22T04:48:49;96191.44;;;21.74;24.99
14293;BME280;62290;59.420;17.842;2023-12-22T04:51:17;96213.69;;;21.74;25.32
14293;BME280;62290;59.420;17.842;2023-12-22T04:53:45;96187.44;;;21.65;24.89
14293;BME280;62290;59.420;17.842;2023-12-22T04:56:14;96195.72;;;21.75;25.01
14293;BME280;62290;59.420;17.842;2023-12-22T04:58:42;96213.69;;;21.74;25.02
14293;BME280;62290;59.420;17.842;2023-12-22T05:01:10;96204.00;;;21.73;25.23
14293;BME280;62290;59.420;17.842;2023-12-22T05:03:38;96214.72;;;21.73;25.22
14293;BME280;62290;59.420;17.842;2023-12-22T05:06:06;96217.63;;;21.72;25.14
14293;BME280;62290;59.420;17.842;2023-12-22T05:08:34;96200.50;;;21.73;25.31
14293;BME280;62290;59.420;17.842;2023-12-22T05:11:03;96216.34;;;21.74;25.05
14293;BME280;62290;59.420;17.842;2023-12-22T05:13:33;96235.69;;;21.76;24.90
14293;BME280;62290;59.420;17.842;2023-12-22T05:16:01;96238.59;;;21.75;25.02
14293;BME280;62290;59.420;17.842;2023-12-22T05:18:29;96241.50;;;21.73;24.79
14293;BME280;62290;59.420;17.842;2023-12-22T05:20:57;96222.50;;;21.75;25.11
14293;BME280;62290;59.420;17.842;2023-12-22T05:23:24;96231.63;;;21.74;25.14
14293;BME280;62290;59.420;17.842;2023-12-22T05:25:52;96244.44;;;21.72;24.98
14293;BME280;62290;59.420;17.842;2023-12-22T05:28:20;96234.25;;;21.62;25.25
14293;BME280;62290;59.420;17.842;2023-12-22T05:30:50;96256.16;;;21.71;25.01
14293;BME280;62290;59.420;17.842;2023-12-22T05:33:18;96251.63;;;21.71;24.98
14293;BME280;62290;59.420;17.842;2023-12-22T05:35:46;96258.59;;;21.72;24.83
14293;BME280;62290;59.420;17.842;2023-12-22T05:38:14;96272.81;;;21.73;25.21
14293;BME280;62290;59.420;17.842;2023-12-22T05:40:41;96256.75;;;21.73;24.93
14293;BME280;62290;59.420;17.842;2023-12-22T05:43:09;96266.66;;;21.72;25.03
14293;BME280;62290;59.420;17.842;2023-12-22T05:45:37;96268.53;;;21.72;25.29
14293;BME280;62290;59.420;17.842;2023-12-22T05:48:07;96308.47;;;21.73;25.00
14293;BME280;62290;59.420;17.842;2023-12-22T05:50:35;96278.56;;;21.76;24.83
14293;BME280;62290;59.420;17.842;2023-12-22T05:53:03;96300.00;;;21.76;25.05
14293;BME280;62290;59.420;17.842;2023-12-22T05:55:31;96293.81;;;21.76;25.14
14293;BME280;62290;59.420;17.842;2023-12-22T05:57:59;96309.88;;;21.76;25.03
14293;BME280;62290;59.420;17.842;2023-12-22T06:00:27;96308.03;;;21.76;24.87
14293;BME280;62290;59.420;17.842;2023-12-22T06:02:55;96297.03;;;21.66;24.92
14293;BME280;62290;59.420;17.842;2023-12-22T06:05:24;96300.81;;;21.77;24.92
14293;BME280;62290;59.420;17.842;2023-12-22T06:07:52;96304.84;;;21.68;24.92
14293;BME280;62290;59.420;17.842;2023-12-22T06:10:20;96325.97;;;21.76;24.85
14293;BME280;62290;59.420;17.842;2023-12-22T06:12:48;96318.75;;;21.76;24.96
14293;BME280;62290;59.420;17.842;2023-12-22T06:15:16;96330.50;;;21.75;25.32
14293;BME280;62290;59.420;17.842;2023-12-22T06:17:44;96339.22;;;21.71;24.90
14293;BME280;62290;59.420;17.842;2023-12-22T06:20:12;96335.94;;;21.69;25.27
14293;BME280;62290;59.420;17.842;2023-12-22T06:22:42;96338.41;;;21.70;25.21
14293;BME280;62290;59.420;17.842;2023-12-22T06:25:10;96347.94;;;21.66;25.40
14293;BME280;62290;59.420;17.842;2023-12-22T06:27:38;96347.31;;;21.64;25.08
14293;BME280;62290;59.420;17.842;2023-12-22T06:30:07;96379.25;;;21.66;25.09
14293;BME280;62290;59.420;17.842;2023-12-22T06:32:35;96355.97;;;21.66;25.16
14293;BME280;62290;59.420;17.842;2023-12-22T06:35:07;96370.78;;;21.69;25.28
14293;BME280;62290;59.420;17.842;2023-12-22T06:37:39;96375.06;;;21.70;25.09
14293;BME280;62290;59.420;17.842;2023-12-22T06:40:10;96376.94;;;21.69;24.94
14293;BME280;62290;59.420;17.842;2023-12-22T06:42:38;96381.50;;;21.69;25.12
14293;BME280;62290;59.420;17.842;2023-12-22T06:45:07;96388.13;;;21.66;24.85
14293;BME280;62290;59.420;17.842;2023-12-22T06:47:35;96390.78;;;21.66;25.11
14293;BME280;62290;59.420;17.842;2023-12-22T06:50:04;96395.78;;;21.63;25.31
14293;BME280;62290;59.420;17.842;2023-12-22T06:52:32;96398.22;;;21.64;25.31
14293;BME280;62290;59.420;17.842;2023-12-22T06:55:00;96421.06;;;21.67;25.07
14293;BME280;62290;59.420;17.842;2023-12-22T06:57:31;96407.22;;;21.70;25.03
14293;BME280;62290;59.420;17.842;2023-12-22T07:00:01;96406.41;;;21.69;25.02
14293;BME280;62290;59.420;17.842;2023-12-22T07:02:29;96408.03;;;21.70;25.03
14293;BME280;62290;59.420;17.842;2023-12-22T07:05:01;96412.56;;;21.70;24.97
14293;BME280;62290;59.420;17.842;2023-12-22T07:07:34;96419.72;;;21.58;25.26
14293;BME280;62290;59.420;17.842;2023-12-22T07:10:03;96440.28;;;21.64;25.00
14293;BME280;62290;59.420;17.842;2023-12-22T07:12:32;96441.69;;;21.66;24.94
14293;BME280;62290;59.420;17.842;2023-12-22T07:15:00;96445.78;;;21.69;24.94
14293;BME280;62290;59.420;17.842;2023-12-22T07:17:28;96431.13;;;21.53;25.01
14293;BME280;62290;59.420;17.842;2023-12-22T07:19:56;96463.91;;;21.67;24.98
14293;BME280;62290;59.420;17.842;2023-12-22T07:22:25;96470.94;;;21.68;25.09
14293;BME280;62290;59.420;17.842;2023-12-22T07:24:53;96464.75;;;21.67;24.96
14293;BME280;62290;59.420;17.842;2023-12-22T07:27:23;96478.13;;;21.67;24.94
14293;BME280;62290;59.420;17.842;2023-12-22T07:29:55;96477.53;;;21.65;25.42
14293;BME280;62290;59.420;17.842;2023-12-22T07:32:23;96499.81;;;21.66;25.53
14293;BME280;62290;59.420;17.842;2023-12-22T07:34:51;96478.72;;;21.69;25.04
14293;BME280;62290;59.420;17.842;2023-12-22T07:37:19;96471.75;;;21.68;25.46
14293;BME280;62290;59.420;17.842;2023-12-22T07:39:49;96494.00;;;21.69;25.12
14293;BME280;62290;59.420;17.842;2023-12-22T07:42:17;96508.38;;;21.74;24.96
14293;BME280;62290;59.420;17.842;2023-12-22T07:44:45;96495.56;;;21.76;25.08
14293;BME280;62290;59.420;17.842;2023-12-22T07:47:14;96497.66;;;21.74;25.05
14293;BME280;62290;59.420;17.842;2023-12-22T07:49:42;96500.53;;;21.73;25.04
14293;BME280;62290;59.420;17.842;2023-12-22T07:52:12;96529.41;;;21.71;24.96
14293;BME280;62290;59.420;17.842;2023-12-22T07:54:40;96506.34;;;21.70;25.09
14293;BME280;62290;59.420;17.842;2023-12-22T07:57:08;96513.78;;;21.68;25.46
14293;BME280;62290;59.420;17.842;2023-12-22T07:59:36;96528.84;;;21.69;25.06
14293;BME280;62290;59.420;17.842;2023-12-22T08:02:04;96540.34;;;21.69;25.24
14293;BME280;62290;59.420;17.842;2023-12-22T08:04:34;96529.00;;;21.74;25.60
14293;BME280;62290;59.420;17.842;2023-12-22T08:07:02;96499.50;;;21.56;25.11
14293;BME280;62290;59.420;17.842;2023-12-22T08:09:30;96532.25;;;21.76;25.40
14293;BME280;62290;59.420;17.842;2023-12-22T08:11:59;96547.75;;;21.74;25.20
14293;BME280;62290;59.420;17.842;2023-12-22T08:14:28;96544.47;;;21.72;25.54
14293;BME280;62290;59.420;17.842;2023-12-22T08:16:56;96551.88;;;21.70;25.52
14293;BME280;62290;59.420;17.842;2023-12-22T08:19:24;96543.66;;;21.71;25.38
14293;BME280;62290;59.420;17.842;2023-12-22T08:21:58;96544.81;;;21.75;25.12
14293;BME280;62290;59.420;17.842;2023-12-22T08:24:31;96549.16;;;21.76;24.97
14293;BME280;62290;59.420;17.842;2023-12-22T08:26:59;96555.78;;;21.74;25.39
14293;BME280;62290;59.420;17.842;2023-12-22T08:29:27;96559.28;;;21.74;25.33
14293;BME280;62290;59.420;17.842;2023-12-22T08:31:55;96557.63;;;21.73;25.15
14293;BME280;62290;59.420;17.842;2023-12-22T08:34:23;96556.38;;;21.76;25.04
14293;BME280;62290;59.420;17.842;2023-12-22T08:36:51;96559.88;;;21.76;25.45
14293;BME280;62290;59.420;17.842;2023-12-22T08:39:21;96572.44;;;21.76;24.96
14293;BME280;62290;59.420;17.842;2023-12-22T08:41:51;96552.31;;;21.67;25.24
14293;BME280;62290;59.420;17.842;2023-12-22T08:44:19;96563.66;;;21.69;25.17
14293;BME280;62290;59.420;17.842;2023-12-22T08:46:48;96572.59;;;21.81;25.02
14293;BME280;62290;59.420;17.842;2023-12-22T08:49:16;96568.06;;;21.81;25.26
14293;BME280;62290;59.420;17.842;2023-12-22T08:51:44;96583.50;;;21.86;24.95
14293;BME280;62290;59.420;17.842;2023-12-22T08:54:12;96578.16;;;21.86;24.94
14293;BME280;62290;59.420;17.842;2023-12-22T08:56:43;96583.50;;;21.86;24.91
14293;BME280;62290;59.420;17.842;2023-12-22T08:59:11;96584.34;;;21.86;24.74
14293;BME280;62290;59.420;17.842;2023-12-22T09:01:38;96560.91;;;21.75;24.84
14293;BME280;62290;59.420;17.842;2023-12-22T09:04:09;96580.63;;;21.87;25.17
14293;BME280;62290;59.420;17.842;2023-12-22T09:06:38;96588.88;;;21.86;25.04
14293;BME280;62290;59.420;17.842;2023-12-22T09:09:06;96577.97;;;21.81;25.17
14293;BME280;62290;59.420;17.842;2023-12-22T09:11:34;96591.34;;;21.87;25.10
14293;BME280;62290;59.420;17.842;2023-12-22T09:14:04;96597.72;;;21.86;25.06
14293;BME280;62290;59.420;17.842;2023-12-22T09:16:33;96599.97;;;21.89;25.08
14293;BME280;62290;59.420;17.842;2023-12-22T09:19:01;96598.13;;;21.90;24.74
14293;BME280;62290;59.420;17.842;2023-12-22T09:21:29;96594.38;;;21.91;24.77
14293;BME280;62290;59.420;17.842;2023-12-22T09:23:57;96594.97;;;21.93;25.08
14293;BME280;62290;59.420;17.842;2023-12-22T09:26:25;96600.94;;;21.95;25.05
14293;BME280;62290;59.420;17.842;2023-12-22T09:28:55;96591.03;;;21.95;24.82
14293;BME280;62290;59.420;17.842;2023-12-22T09:31:25;96591.84;;;21.96;24.86
14293;BME280;62290;59.420;17.842;2023-12-22T09:33:53;96604.44;;;21.95;24.72
14293;BME280;62290;59.420;17.842;2023-12-22T09:36:21;96604.44;;;21.95;24.73
14293;BME280;62290;59.420;17.842;2023-12-22T09:38:49;96601.75;;;21.95;24.90
14293;BME280;62290;59.420;17.842;2023-12-22T09:41:17;96582.28;;;21.82;24.82
14293;BME280;62290;59.420;17.842;2023-12-22T09:43:46;96606.06;;;21.96;24.79
14293;BME280;62290;59.420;17.842;2023-12-22T09:46:18;96609.59;;;21.97;24.85
14293;BME280;62290;59.420;17.842;2023-12-22T09:48:51;96583.31;;;21.87;24.83
14293;BME280;62290;59.420;17.842;2023-12-22T09:51:20;96609.16;;;22.00;24.79
14293;BME280;62290;59.420;17.842;2023-12-22T09:53:49;96618.97;;;22.06;24.90
14293;BME280;62290;59.420;17.842;2023-12-22T09:56:18;96628.66;;;22.07;24.81
14293;BME280;62290;59.420;17.842;2023-12-22T09:58:48;96613.75;;;22.11;24.99
14293;BME280;62290;59.420;17.842;2023-12-22T10:01:17;96620.09;;;22.17;24.95
14293;BME280;62290;59.420;17.842;2023-12-22T10:03:50;96624.81;;;22.21;24.76
14293;BME280;62290;59.420;17.842;2023-12-22T10:06:20;96629.72;;;22.24;24.87
14293;BME280;62290;59.420;17.842;2023-12-22T10:08:48;96598.06;;;22.14;24.95
14293;BME280;62290;59.420;17.842;2023-12-22T10:11:18;96623.47;;;22.30;24.68
14293;BME280;62290;59.420;17.842;2023-12-22T10:13:48;96623.22;;;22.32;24.90
14293;BME280;62290;59.420;17.842;2023-12-22T10:16:19;96624.06;;;22.32;25.17
14293;BME280;62290;59.420;17.842;2023-12-22T10:18:47;96622.59;;;22.36;24.94
14293;BME280;62290;59.420;17.842;2023-12-22T10:21:17;96619.06;;;22.36;24.82
14293;BME280;62290;59.420;17.842;2023-12-22T10:23:45;96625.25;;;22.36;24.93
14293;BME280;62290;59.420;17.842;2023-12-22T10:26:13;96623.41;;;22.37;24.79
14293;BME280;62290;59.420;17.842;2023-12-22T10:28:43;96630.53;;;22.43;24.83
14293;BME280;62290;59.420;17.842;2023-12-22T10:31:11;96631.75;;;22.47;24.74
14293;BME280;62290;59.420;17.842;2023-12-22T10:33:39;96637.94;;;22.47;24.90
14293;BME280;62290;59.420;17.842;2023-12-22T10:36:07;96630.25;;;22.51;24.85
14293;BME280;62290;59.420;17.842;2023-12-22T10:38:38;96640.53;;;22.54;24.69
14293;BME280;62290;59.420;17.842;2023-12-22T10:41:06;96639.84;;;22.58;24.56
14293;BME280;62290;59.420;17.842;2023-12-22T10:43:38;96646.88;;;22.59;24.63
14293;BME280;62290;59.420;17.842;2023-12-22T10:46:06;96641.09;;;22.62;24.65
14293;BME280;62290;59.420;17.842;2023-12-22T10:48:37;96636.72;;;22.61;24.86
14293;BME280;62290;59.420;17.842;2023-12-22T10:51:09;96647.75;;;22.53;25.09
14293;BME280;62290;59.420;17.842;2023-12-22T10:53:41;96638.38;;;22.44;25.57
14293;BME280;62290;59.420;17.842;2023-12-22T10:56:10;96646.88;;;22.41;26.39
14293;BME280;62290;59.420;17.842;2023-12-22T10:58:39;96641.34;;;22.36;27.54
14293;BME280;62290;59.420;17.842;2023-12-22T11:01:07;96641.72;;;22.40;28.90
14293;BME280;62290;59.420;17.842;2023-12-22T11:03:39;96632.47;;;22.36;28.99
14293;BME280;62290;59.420;17.842;2023-12-22T11:06:10;96644.78;;;22.43;28.85
14293;BME280;62290;59.420;17.842;2023-12-22T11:08:40;96649.91;;;22.45;28.81
14293;BME280;62290;59.420;17.842;2023-12-22T11:11:16;96644.09;;;22.48;28.44
14293;BME280;62290;59.420;17.842;2023-12-22T11:13:49;96638.72;;;22.48;27.97
14293;BME280;62290;59.420;17.842;2023-12-22T11:16:19;96621.53;;;22.37;27.51
14293;BME280;62290;59.420;17.842;2023-12-22T11:18:49;96649.41;;;22.54;27.23
14293;BME280;62290;59.420;17.842;2023-12-22T11:21:20;96635.56;;;22.57;26.88
14293;BME280;62290;59.420;17.842;2023-12-22T11:23:51;96635.56;;;22.57;26.64
14293;BME280;62290;59.420;17.842;2023-12-22T11:26:23;96641.50;;;22.59;26.46
14293;BME280;62290;59.420;17.842;2023-12-22T11:28:52;96649.31;;;22.61;26.40
14293;BME280;62290;59.420;17.842;2023-12-22T11:31:20;96649.72;;;22.64;26.29
14293;BME280;62290;59.420;17.842;2023-12-22T11:33:50;96643.91;;;22.67;25.90
14293;BME280;62290;59.420;17.842;2023-12-22T11:36:31;96652.41;;;22.64;25.66
14293;BME280;62290;59.420;17.842;2023-12-22T11:39:00;96657.84;;;22.76;25.67
14293;BME280;62290;59.420;17.842;2023-12-22T11:41:30;96656.59;;;22.79;25.55
14293;BME280;62290;59.420;17.842;2023-12-22T11:44:01;96665.44;;;22.79;25.51
14293;BME280;62290;59.420;17.842;2023-12-22T11:46:32;96655.53;;;22.80;25.40
14293;BME280;62290;59.420;17.842;2023-12-22T11:49:00;96655.97;;;22.77;25.33
14293;BME280;62290;59.420;17.842;2023-12-22T11:51:31;96631.59;;;22.60;25.30
14293;BME280;62290;59.420;17.842;2023-12-22T11:54:03;96661.19;;;22.71;25.26
14293;BME280;62290;59.420;17.842;2023-12-22T11:56:31;96661.63;;;22.68;25.02
14293;BME280;62290;59.420;17.842;2023-12-22T11:58:59;96664.19;;;22.63;25.00
14293;BME280;62290;59.420;17.842;2023-12-22T12:01:28;96667.69;;;22.64;24.91
14293;BME280;62290;59.420;17.842;2023-12-22T12:04:02;96669.75;;;22.62;24.99
14293;BME280;62290;59.420;17.842;2023-12-22T12:06:32;96662.56;;;22.62;24.77
14293;BME280;62290;59.420;17.842;2023-12-22T12:09:06;96663.16;;;22.64;24.91
14293;BME280;62290;59.420;17.842;2023-12-22T12:12:11;96653.44;;;22.63;24.92
14293;BME280;62290;59.420;17.842;2023-12-22T12:14:41;96658.59;;;22.65;24.63
14293;BME280;62290;59.420;17.842;2023-12-22T12:17:10;96664.13;;;22.70;24.92
14293;BME280;62290;59.420;17.842;2023-12-22T12:19:39;96662.47;;;22.69;24.86
14293;BME280;62290;59.420;17.842;2023-12-22T12:22:11;96676.63;;;22.76;24.96
14293;BME280;62290;59.420;17.842;2023-12-22T12:24:42;96675.59;;;22.77;24.84
14293;BME280;62290;59.420;17.842;2023-12-22T12:27:10;96675.97;;;22.81;24.58
14293;BME280;62290;59.420;17.842;2023-12-22T12:29:39;96671.19;;;22.83;24.74
14293;BME280;62290;59.420;17.842;2023-12-22T12:32:07;96686.03;;;22.85;24.47
14293;BME280;62290;59.420;17.842;2023-12-22T12:34:36;96680.41;;;22.87;24.71
14293;BME280;62290;59.420;17.842;2023-12-22T12:37:05;96689.97;;;22.83;24.51
14293;BME280;62290;59.420;17.842;2023-12-22T12:39:34;96664.31;;;22.68;24.40
14293;BME280;62290;59.420;17.842;2023-12-22T12:42:07;96689.09;;;22.70;nan
14293;BME280;62290;59.420;17.842;2023-12-22T12:44:35;96683.72;;;22.70;24.47
14293;BME280;62290;59.420;17.842;2023-12-22T12:47:11;96691.97;;;22.69;24.39
14293;BME280;62290;59.420;17.842;2023-12-22T12:49:40;96683.34;;;22.67;24.53
14293;BME280;62290;59.420;17.842;2023-12-22T12:52:12;96687.69;;;22.61;24.30
14293;BME280;62290;59.420;17.842;2023-12-22T12:54:41;96680.53;;;22.55;24.35
14293;BME280;62290;59.420;17.842;2023-12-22T12:57:15;96693.91;;;22.62;24.22
14293;BME280;62290;59.420;17.842;2023-12-22T12:59:45;96692.47;;;22.59;24.38